sensor_id;sensor_type;location;lat;lon;timestamp;P1;durP1;ratioP1;P2;durP2;ratioP2
78774;SDS011;68119;43.398;3.676;2024-03-29T00:01:36;89.93;;;18.30;;
78774;SDS011;68119;43.398;3.676;2024-03-29T00:04:05;95.63;;;19.55;;
78774;SDS011;68119;43.398;3.676;2024-03-29T00:06:34;91.70;;;17.67;;
78774;SDS011;68119;43.398;3.676;2024-03-29T00:09:00;73.75;;;15.65;;
78774;SDS011;68119;43.398;3.676;2024-03-29T00:11:32;73.70;;;15.90;;
78774;SDS011;68119;43.398;3.676;2024-03-29T00:14:01;61.25;;;15.05;;
78774;SDS011;68119;43.398;3.676;2024-03-29T00:16:29;63.85;;;13.48;;
78774;SDS011;68119;43.398;3.676;2024-03-29T00:18:56;61.85;;;13.60;;
78774;SDS011;68119;43.398;3.676;2024-03-29T00:21:23;66.68;;;15.63;;
78774;SDS011;68119;43.398;3.676;2024-03-29T00:23:49;73.95;;;15.00;;
78774;SDS011;68119;43.398;3.676;2024-03-29T00:26:18;69.97;;;14.60;;
78774;SDS011;68119;43.398;3.676;2024-03-29T00:28:44;63.42;;;15.55;;
78774;SDS011;68119;43.398;3.676;2024-03-29T00:31:13;81.90;;;16.13;;
78774;SDS011;68119;43.398;3.676;2024-03-29T00:33:40;82.15;;;17.83;;
78774;SDS011;68119;43.398;3.676;2024-03-29T00:36:15;71.53;;;15.48;;
78774;SDS011;68119;43.398;3.676;2024-03-29T00:38:44;75.28;;;16.38;;
78774;SDS011;68119;43.398;3.676;2024-03-29T00:41:12;63.42;;;15.52;;
78774;SDS011;68119;43.398;3.676;2024-03-29T00:43:38;86.72;;;17.02;;
78774;SDS011;68119;43.398;3.676;2024-03-29T00:46:07;87.20;;;18.20;;
78774;SDS011;68119;43.398;3.676;2024-03-29T00:48:35;92.38;;;17.92;;
78774;SDS011;68119;43.398;3.676;2024-03-29T00:51:05;96.20;;;19.25;;
78774;SDS011;68119;43.398;3.676;2024-03-29T00:53:31;92.35;;;18.15;;
78774;SDS011;68119;43.398;3.676;2024-03-29T00:55:57;97.65;;;21.33;;
78774;SDS011;68119;43.398;3.676;2024-03-29T00:58:26;102.68;;;21.38;;
78774;SDS011;68119;43.398;3.676;2024-03-29T01:00:52;83.68;;;22.10;;
78774;SDS011;68119;43.398;3.676;2024-03-29T01:03:21;96.63;;;18.35;;
78774;SDS011;68119;43.398;3.676;2024-03-29T01:05:47;98.93;;;17.77;;
78774;SDS011;68119;43.398;3.676;2024-03-29T01:08:16;90.85;;;22.85;;
78774;SDS011;68119;43.398;3.676;2024-03-29T01:10:42;71.43;;;16.45;;
78774;SDS011;68119;43.398;3.676;2024-03-29T01:13:11;88.95;;;18.10;;
78774;SDS011;68119;43.398;3.676;2024-03-29T01:15:37;83.07;;;16.02;;
78774;SDS011;68119;43.398;3.676;2024-03-29T01:18:03;98.35;;;17.80;;
78774;SDS011;68119;43.398;3.676;2024-03-29T01:20:40;75.72;;;16.00;;
78774;SDS011;68119;43.398;3.676;2024-03-29T01:23:09;88.13;;;18.75;;
78774;SDS011;68119;43.398;3.676;2024-03-29T01:25:37;82.32;;;16.67;;
78774;SDS011;68119;43.398;3.676;2024-03-29T01:28:06;99.55;;;18.00;;
78774;SDS011;68119;43.398;3.676;2024-03-29T01:30:32;81.53;;;16.98;;
78774;SDS011;68119;43.398;3.676;2024-03-29T01:33:01;86.55;;;22.00;;
78774;SDS011;68119;43.398;3.676;2024-03-29T01:35:28;72.60;;;17.42;;
78774;SDS011;68119;43.398;3.676;2024-03-29T01:37:59;77.53;;;18.13;;
78774;SDS011;68119;43.398;3.676;2024-03-29T01:40:25;77.50;;;17.80;;
78774;SDS011;68119;43.398;3.676;2024-03-29T01:42:57;97.13;;;30.40;;
78774;SDS011;68119;43.398;3.676;2024-03-29T01:45:26;84.32;;;18.25;;
78774;SDS011;68119;43.398;3.676;2024-03-29T01:47:55;90.35;;;18.92;;
78774;SDS011;68119;43.398;3.676;2024-03-29T01:50:21;91.95;;;17.90;;
78774;SDS011;68119;43.398;3.676;2024-03-29T01:52:53;96.13;;;18.35;;
78774;SDS011;68119;43.398;3.676;2024-03-29T01:55:19;88.80;;;21.20;;
78774;SDS011;68119;43.398;3.676;2024-03-29T01:57:46;85.38;;;25.10;;
78774;SDS011;68119;43.398;3.676;2024-03-29T02:00:17;99.38;;;26.92;;
78774;SDS011;68119;43.398;3.676;2024-03-29T02:02:47;98.75;;;32.05;;
78774;SDS011;68119;43.398;3.676;2024-03-29T02:05:13;108.55;;;25.80;;
78774;SDS011;68119;43.398;3.676;2024-03-29T02:07:39;107.65;;;43.45;;
78774;SDS011;68119;43.398;3.676;2024-03-29T02:10:09;97.97;;;26.90;;
78774;SDS011;68119;43.398;3.676;2024-03-29T02:12:41;99.70;;;30.05;;
78774;SDS011;68119;43.398;3.676;2024-03-29T02:15:08;92.93;;;22.60;;
78774;SDS011;68119;43.398;3.676;2024-03-29T02:17:44;107.85;;;23.70;;
78774;SDS011;68119;43.398;3.676;2024-03-29T02:20:13;99.07;;;25.42;;
78774;SDS011;68119;43.398;3.676;2024-03-29T02:22:46;104.47;;;23.08;;
78774;SDS011;68119;43.398;3.676;2024-03-29T02:25:12;98.85;;;29.48;;
78774;SDS011;68119;43.398;3.676;2024-03-29T02:27:39;104.03;;;28.38;;
78774;SDS011;68119;43.398;3.676;2024-03-29T02:30:17;98.50;;;29.75;;
78774;SDS011;68119;43.398;3.676;2024-03-29T02:32:43;110.18;;;25.42;;
78774;SDS011;68119;43.398;3.676;2024-03-29T02:35:12;97.07;;;20.40;;
78774;SDS011;68119;43.398;3.676;2024-03-29T02:37:40;101.75;;;19.95;;
78774;SDS011;68119;43.398;3.676;2024-03-29T02:40:11;114.20;;;23.25;;
78774;SDS011;68119;43.398;3.676;2024-03-29T02:42:40;113.10;;;31.23;;
78774;SDS011;68119;43.398;3.676;2024-03-29T02:45:09;97.47;;;23.10;;
78774;SDS011;68119;43.398;3.676;2024-03-29T02:47:35;98.45;;;21.20;;
78774;SDS011;68119;43.398;3.676;2024-03-29T02:50:01;101.28;;;20.33;;
78774;SDS011;68119;43.398;3.676;2024-03-29T02:52:31;99.05;;;21.50;;
78774;SDS011;68119;43.398;3.676;2024-03-29T02:54:57;95.72;;;23.42;;
78774;SDS011;68119;43.398;3.676;2024-03-29T02:57:29;98.57;;;22.70;;
78774;SDS011;68119;43.398;3.676;2024-03-29T02:59:57;102.00;;;24.75;;
78774;SDS011;68119;43.398;3.676;2024-03-29T03:02:24;86.45;;;23.60;;
78774;SDS011;68119;43.398;3.676;2024-03-29T03:04:50;90.13;;;25.42;;
78774;SDS011;68119;43.398;3.676;2024-03-29T03:07:19;91.75;;;28.33;;
78774;SDS011;68119;43.398;3.676;2024-03-29T03:10:06;97.15;;;19.08;;
78774;SDS011;68119;43.398;3.676;2024-03-29T03:12:53;85.30;;;23.30;;
78774;SDS011;68119;43.398;3.676;2024-03-29T03:15:24;85.80;;;23.98;;
78774;SDS011;68119;43.398;3.676;2024-03-29T03:17:50;81.47;;;22.45;;
78774;SDS011;68119;43.398;3.676;2024-03-29T03:20:16;106.53;;;22.00;;
78774;SDS011;68119;43.398;3.676;2024-03-29T03:22:42;88.18;;;23.48;;
78774;SDS011;68119;43.398;3.676;2024-03-29T03:25:12;79.30;;;19.23;;
78774;SDS011;68119;43.398;3.676;2024-03-29T03:27:38;92.93;;;20.95;;
78774;SDS011;68119;43.398;3.676;2024-03-29T03:30:07;93.70;;;23.90;;
78774;SDS011;68119;43.398;3.676;2024-03-29T03:32:36;91.05;;;27.70;;
78774;SDS011;68119;43.398;3.676;2024-03-29T03:35:05;92.70;;;29.00;;
78774;SDS011;68119;43.398;3.676;2024-03-29T03:37:34;91.45;;;27.98;;
78774;SDS011;68119;43.398;3.676;2024-03-29T03:40:03;97.30;;;20.67;;
78774;SDS011;68119;43.398;3.676;2024-03-29T03:42:29;84.95;;;20.55;;
78774;SDS011;68119;43.398;3.676;2024-03-29T03:44:56;83.05;;;21.88;;
78774;SDS011;68119;43.398;3.676;2024-03-29T03:47:25;91.72;;;24.77;;
78774;SDS011;68119;43.398;3.676;2024-03-29T03:49:51;86.03;;;20.98;;
78774;SDS011;68119;43.398;3.676;2024-03-29T03:52:17;80.93;;;20.70;;
78774;SDS011;68119;43.398;3.676;2024-03-29T03:54:46;81.10;;;25.83;;
78774;SDS011;68119;43.398;3.676;2024-03-29T03:57:15;92.30;;;24.42;;
78774;SDS011;68119;43.398;3.676;2024-03-29T03:59:44;73.85;;;21.58;;
78774;SDS011;68119;43.398;3.676;2024-03-29T04:02:15;76.18;;;18.30;;
78774;SDS011;68119;43.398;3.676;2024-03-29T04:04:53;66.40;;;16.15;;
78774;SDS011;68119;43.398;3.676;2024-03-29T04:07:22;83.50;;;25.30;;
78774;SDS011;68119;43.398;3.676;2024-03-29T04:09:56;84.38;;;20.20;;
78774;SDS011;68119;43.398;3.676;2024-03-29T04:12:25;83.35;;;21.88;;
78774;SDS011;68119;43.398;3.676;2024-03-29T04:14:55;75.20;;;23.88;;
78774;SDS011;68119;43.398;3.676;2024-03-29T04:17:24;85.78;;;20.98;;
78774;SDS011;68119;43.398;3.676;2024-03-29T04:19:51;77.70;;;19.00;;
78774;SDS011;68119;43.398;3.676;2024-03-29T04:22:20;81.00;;;21.88;;
78774;SDS011;68119;43.398;3.676;2024-03-29T04:24:46;81.85;;;20.60;;
78774;SDS011;68119;43.398;3.676;2024-03-29T04:27:17;84.93;;;26.10;;
78774;SDS011;68119;43.398;3.676;2024-03-29T04:29:43;85.25;;;20.35;;
78774;SDS011;68119;43.398;3.676;2024-03-29T04:32:11;73.80;;;17.85;;
78774;SDS011;68119;43.398;3.676;2024-03-29T04:34:42;70.15;;;19.98;;
78774;SDS011;68119;43.398;3.676;2024-03-29T04:37:09;88.80;;;22.95;;
78774;SDS011;68119;43.398;3.676;2024-03-29T04:39:37;76.70;;;22.85;;
78774;SDS011;68119;43.398;3.676;2024-03-29T04:42:05;78.53;;;26.52;;
78774;SDS011;68119;43.398;3.676;2024-03-29T04:44:34;86.03;;;18.98;;
78774;SDS011;68119;43.398;3.676;2024-03-29T04:47:00;87.78;;;19.23;;
78774;SDS011;68119;43.398;3.676;2024-03-29T04:49:30;80.50;;;20.33;;
78774;SDS011;68119;43.398;3.676;2024-03-29T04:51:59;88.22;;;23.70;;
78774;SDS011;68119;43.398;3.676;2024-03-29T04:54:26;93.15;;;26.88;;
78774;SDS011;68119;43.398;3.676;2024-03-29T04:56:55;92.88;;;19.65;;
78774;SDS011;68119;43.398;3.676;2024-03-29T04:59:24;102.10;;;34.00;;
78774;SDS011;68119;43.398;3.676;2024-03-29T05:01:55;89.80;;;26.95;;
78774;SDS011;68119;43.398;3.676;2024-03-29T05:04:24;99.88;;;20.80;;
78774;SDS011;68119;43.398;3.676;2024-03-29T05:06:59;94.85;;;23.52;;
78774;SDS011;68119;43.398;3.676;2024-03-29T05:09:28;90.55;;;19.13;;
78774;SDS011;68119;43.398;3.676;2024-03-29T05:12:00;82.22;;;20.95;;
78774;SDS011;68119;43.398;3.676;2024-03-29T05:14:29;89.93;;;23.90;;
78774;SDS011;68119;43.398;3.676;2024-03-29T05:17:00;88.65;;;21.90;;
78774;SDS011;68119;43.398;3.676;2024-03-29T05:19:27;80.32;;;17.85;;
78774;SDS011;68119;43.398;3.676;2024-03-29T05:21:56;92.90;;;19.83;;
78774;SDS011;68119;43.398;3.676;2024-03-29T05:24:28;91.53;;;23.13;;
78774;SDS011;68119;43.398;3.676;2024-03-29T05:26:57;105.72;;;20.98;;
78774;SDS011;68119;43.398;3.676;2024-03-29T05:29:25;75.43;;;15.80;;
78774;SDS011;68119;43.398;3.676;2024-03-29T05:31:54;87.10;;;19.73;;
78774;SDS011;68119;43.398;3.676;2024-03-29T05:34:23;94.38;;;20.17;;
78774;SDS011;68119;43.398;3.676;2024-03-29T05:36:52;75.47;;;18.08;;
78774;SDS011;68119;43.398;3.676;2024-03-29T05:39:23;92.32;;;16.88;;
78774;SDS011;68119;43.398;3.676;2024-03-29T05:41:52;80.55;;;17.02;;
78774;SDS011;68119;43.398;3.676;2024-03-29T05:44:24;93.78;;;19.45;;
78774;SDS011;68119;43.398;3.676;2024-03-29T05:46:53;80.25;;;17.83;;
78774;SDS011;68119;43.398;3.676;2024-03-29T05:49:19;104.03;;;35.03;;
78774;SDS011;68119;43.398;3.676;2024-03-29T05:51:46;89.10;;;20.60;;
78774;SDS011;68119;43.398;3.676;2024-03-29T05:54:24;83.43;;;20.02;;
78774;SDS011;68119;43.398;3.676;2024-03-29T05:56:51;83.72;;;19.40;;
78774;SDS011;68119;43.398;3.676;2024-03-29T05:59:23;94.22;;;19.23;;
78774;SDS011;68119;43.398;3.676;2024-03-29T06:04:20;77.80;;;18.02;;
78774;SDS011;68119;43.398;3.676;2024-03-29T06:07:05;88.05;;;17.48;;
78774;SDS011;68119;43.398;3.676;2024-03-29T06:09:33;87.53;;;20.25;;
78774;SDS011;68119;43.398;3.676;2024-03-29T06:14:47;93.60;;;21.48;;
78774;SDS011;68119;43.398;3.676;2024-03-29T06:17:35;72.28;;;19.70;;
78774;SDS011;68119;43.398;3.676;2024-03-29T06:20:02;81.45;;;21.50;;
78774;SDS011;68119;43.398;3.676;2024-03-29T06:22:31;90.93;;;23.58;;
78774;SDS011;68119;43.398;3.676;2024-03-29T06:24:58;90.30;;;24.38;;
78774;SDS011;68119;43.398;3.676;2024-03-29T06:27:27;82.97;;;23.88;;
78774;SDS011;68119;43.398;3.676;2024-03-29T06:29:59;74.07;;;18.52;;
78774;SDS011;68119;43.398;3.676;2024-03-29T06:32:25;73.20;;;17.33;;
78774;SDS011;68119;43.398;3.676;2024-03-29T06:34:56;91.85;;;30.55;;
78774;SDS011;68119;43.398;3.676;2024-03-29T06:37:23;94.03;;;24.60;;
78774;SDS011;68119;43.398;3.676;2024-03-29T06:39:53;94.03;;;33.63;;
78774;SDS011;68119;43.398;3.676;2024-03-29T06:42:19;100.18;;;28.40;;
78774;SDS011;68119;43.398;3.676;2024-03-29T06:44:48;99.80;;;40.30;;
78774;SDS011;68119;43.398;3.676;2024-03-29T06:47:19;88.57;;;27.10;;
78774;SDS011;68119;43.398;3.676;2024-03-29T06:49:48;103.90;;;36.72;;
78774;SDS011;68119;43.398;3.676;2024-03-29T06:52:14;124.88;;;54.95;;
78774;SDS011;68119;43.398;3.676;2024-03-29T06:54:45;96.07;;;28.73;;
78774;SDS011;68119;43.398;3.676;2024-03-29T06:57:14;107.93;;;40.95;;
78774;SDS011;68119;43.398;3.676;2024-03-29T06:59:45;90.35;;;31.38;;
78774;SDS011;68119;43.398;3.676;2024-03-29T07:02:22;89.90;;;26.58;;
78774;SDS011;68119;43.398;3.676;2024-03-29T07:04:51;85.38;;;22.73;;
78774;SDS011;68119;43.398;3.676;2024-03-29T07:07:23;74.80;;;19.75;;
78774;SDS011;68119;43.398;3.676;2024-03-29T07:09:49;87.88;;;29.30;;
78774;SDS011;68119;43.398;3.676;2024-03-29T07:12:16;87.25;;;28.33;;
78774;SDS011;68119;43.398;3.676;2024-03-29T07:14:45;77.30;;;22.25;;
78774;SDS011;68119;43.398;3.676;2024-03-29T07:17:14;90.28;;;24.63;;
78774;SDS011;68119;43.398;3.676;2024-03-29T07:19:43;74.40;;;20.85;;
78774;SDS011;68119;43.398;3.676;2024-03-29T07:22:09;80.78;;;21.10;;
78774;SDS011;68119;43.398;3.676;2024-03-29T07:24:42;78.45;;;21.83;;
78774;SDS011;68119;43.398;3.676;2024-03-29T07:27:11;78.82;;;21.33;;
78774;SDS011;68119;43.398;3.676;2024-03-29T07:29:45;85.13;;;28.92;;
78774;SDS011;68119;43.398;3.676;2024-03-29T07:32:11;89.65;;;26.50;;
78774;SDS011;68119;43.398;3.676;2024-03-29T07:34:42;83.10;;;26.65;;
78774;SDS011;68119;43.398;3.676;2024-03-29T07:37:08;81.68;;;26.85;;
78774;SDS011;68119;43.398;3.676;2024-03-29T07:39:40;89.03;;;27.75;;
78774;SDS011;68119;43.398;3.676;2024-03-29T07:42:07;68.72;;;25.05;;
78774;SDS011;68119;43.398;3.676;2024-03-29T07:44:36;82.60;;;22.55;;
78774;SDS011;68119;43.398;3.676;2024-03-29T07:47:05;86.80;;;24.15;;
78774;SDS011;68119;43.398;3.676;2024-03-29T07:49:34;83.50;;;29.65;;
78774;SDS011;68119;43.398;3.676;2024-03-29T07:52:03;97.63;;;36.00;;
78774;SDS011;68119;43.398;3.676;2024-03-29T07:54:31;94.65;;;23.75;;
78774;SDS011;68119;43.398;3.676;2024-03-29T07:57:00;86.88;;;30.98;;
78774;SDS011;68119;43.398;3.676;2024-03-29T07:59:26;88.57;;;25.58;;
78774;SDS011;68119;43.398;3.676;2024-03-29T08:01:55;76.97;;;30.58;;
78774;SDS011;68119;43.398;3.676;2024-03-29T08:04:26;86.53;;;43.42;;
78774;SDS011;68119;43.398;3.676;2024-03-29T08:06:59;92.50;;;33.28;;
78774;SDS011;68119;43.398;3.676;2024-03-29T08:09:25;85.00;;;33.72;;
78774;SDS011;68119;43.398;3.676;2024-03-29T08:11:58;90.68;;;40.90;;
78774;SDS011;68119;43.398;3.676;2024-03-29T08:14:28;90.18;;;36.20;;
78774;SDS011;68119;43.398;3.676;2024-03-29T08:16:56;75.45;;;30.42;;
78774;SDS011;68119;43.398;3.676;2024-03-29T08:19:52;99.22;;;47.40;;
78774;SDS011;68119;43.398;3.676;2024-03-29T08:22:18;75.10;;;21.52;;
78774;SDS011;68119;43.398;3.676;2024-03-29T08:24:44;64.95;;;19.00;;
78774;SDS011;68119;43.398;3.676;2024-03-29T08:27:11;78.07;;;24.42;;
78774;SDS011;68119;43.398;3.676;2024-03-29T08:29:55;68.35;;;20.67;;
78774;SDS011;68119;43.398;3.676;2024-03-29T08:32:24;69.57;;;19.67;;
78774;SDS011;68119;43.398;3.676;2024-03-29T08:34:53;69.55;;;21.17;;
78774;SDS011;68119;43.398;3.676;2024-03-29T08:37:20;75.68;;;22.98;;
78774;SDS011;68119;43.398;3.676;2024-03-29T08:42:38;77.00;;;39.08;;
78774;SDS011;68119;43.398;3.676;2024-03-29T08:45:05;78.60;;;28.50;;
78774;SDS011;68119;43.398;3.676;2024-03-29T08:47:38;72.15;;;28.85;;
78774;SDS011;68119;43.398;3.676;2024-03-29T08:50:07;83.97;;;24.70;;
78774;SDS011;68119;43.398;3.676;2024-03-29T08:52:52;71.30;;;27.17;;
78774;SDS011;68119;43.398;3.676;2024-03-29T08:55:19;75.05;;;42.45;;
78774;SDS011;68119;43.398;3.676;2024-03-29T08:57:45;65.78;;;22.75;;
78774;SDS011;68119;43.398;3.676;2024-03-29T09:03:17;85.97;;;51.00;;
78774;SDS011;68119;43.398;3.676;2024-03-29T09:08:50;75.03;;;23.65;;
78774;SDS011;68119;43.398;3.676;2024-03-29T09:11:19;69.03;;;27.42;;
78774;SDS011;68119;43.398;3.676;2024-03-29T09:13:48;82.47;;;31.40;;
78774;SDS011;68119;43.398;3.676;2024-03-29T09:19:06;101.80;;;63.13;;
78774;SDS011;68119;43.398;3.676;2024-03-29T09:21:35;90.40;;;54.95;;
78774;SDS011;68119;43.398;3.676;2024-03-29T09:24:01;73.75;;;36.80;;
78774;SDS011;68119;43.398;3.676;2024-03-29T09:32:32;78.32;;;41.13;;
78774;SDS011;68119;43.398;3.676;2024-03-29T09:35:01;65.88;;;25.38;;
78774;SDS011;68119;43.398;3.676;2024-03-29T09:37:27;98.68;;;58.58;;
78774;SDS011;68119;43.398;3.676;2024-03-29T09:40:03;77.18;;;33.33;;
78774;SDS011;68119;43.398;3.676;2024-03-29T09:45:33;126.30;;;79.03;;
78774;SDS011;68119;43.398;3.676;2024-03-29T09:48:04;94.75;;;49.15;;
78774;SDS011;68119;43.398;3.676;2024-03-29T09:50:33;99.50;;;52.60;;
78774;SDS011;68119;43.398;3.676;2024-03-29T09:53:07;144.70;;;89.38;;
78774;SDS011;68119;43.398;3.676;2024-03-29T09:55:36;123.80;;;79.63;;
78774;SDS011;68119;43.398;3.676;2024-03-29T09:58:05;113.65;;;66.82;;
78774;SDS011;68119;43.398;3.676;2024-03-29T10:00:31;84.70;;;35.67;;
78774;SDS011;68119;43.398;3.676;2024-03-29T10:03:00;60.72;;;23.83;;
78774;SDS011;68119;43.398;3.676;2024-03-29T10:05:29;68.43;;;23.08;;
78774;SDS011;68119;43.398;3.676;2024-03-29T10:08:17;67.57;;;16.55;;
78774;SDS011;68119;43.398;3.676;2024-03-29T10:10:43;66.95;;;17.17;;
78774;SDS011;68119;43.398;3.676;2024-03-29T10:13:09;66.35;;;16.02;;
78774;SDS011;68119;43.398;3.676;2024-03-29T10:15:35;60.75;;;14.60;;
78774;SDS011;68119;43.398;3.676;2024-03-29T10:18:09;58.17;;;13.27;;
78774;SDS011;68119;43.398;3.676;2024-03-29T10:20:35;71.63;;;14.07;;
78774;SDS011;68119;43.398;3.676;2024-03-29T10:28:56;77.28;;;13.48;;
78774;SDS011;68119;43.398;3.676;2024-03-29T10:31:36;59.08;;;12.88;;
78774;SDS011;68119;43.398;3.676;2024-03-29T10:34:05;74.28;;;14.10;;
78774;SDS011;68119;43.398;3.676;2024-03-29T10:39:18;76.03;;;13.75;;
78774;SDS011;68119;43.398;3.676;2024-03-29T10:41:49;59.08;;;13.57;;
78774;SDS011;68119;43.398;3.676;2024-03-29T10:44:30;67.38;;;14.25;;
78774;SDS011;68119;43.398;3.676;2024-03-29T10:46:56;61.40;;;12.07;;
78774;SDS011;68119;43.398;3.676;2024-03-29T10:49:50;65.35;;;14.32;;
78774;SDS011;68119;43.398;3.676;2024-03-29T10:52:17;67.30;;;13.30;;
78774;SDS011;68119;43.398;3.676;2024-03-29T10:54:51;65.55;;;13.20;;
78774;SDS011;68119;43.398;3.676;2024-03-29T10:57:24;71.25;;;13.93;;
78774;SDS011;68119;43.398;3.676;2024-03-29T10:59:58;74.38;;;13.95;;
78774;SDS011;68119;43.398;3.676;2024-03-29T11:05:09;72.35;;;13.02;;
78774;SDS011;68119;43.398;3.676;2024-03-29T11:07:40;64.60;;;12.50;;
78774;SDS011;68119;43.398;3.676;2024-03-29T11:10:15;68.40;;;12.68;;
78774;SDS011;68119;43.398;3.676;2024-03-29T11:12:59;60.25;;;12.57;;
78774;SDS011;68119;43.398;3.676;2024-03-29T11:15:30;69.22;;;12.75;;
78774;SDS011;68119;43.398;3.676;2024-03-29T11:18:12;58.03;;;12.57;;
78774;SDS011;68119;43.398;3.676;2024-03-29T11:20:39;56.38;;;10.60;;
78774;SDS011;68119;43.398;3.676;2024-03-29T11:23:10;53.28;;;10.35;;
78774;SDS011;68119;43.398;3.676;2024-03-29T11:25:41;56.55;;;11.18;;
78774;SDS011;68119;43.398;3.676;2024-03-29T11:28:14;56.28;;;11.50;;
78774;SDS011;68119;43.398;3.676;2024-03-29T11:30:49;58.55;;;13.95;;
78774;SDS011;68119;43.398;3.676;2024-03-29T11:38:58;50.00;;;21.10;;
78774;SDS011;68119;43.398;3.676;2024-03-29T11:41:25;51.53;;;22.38;;
78774;SDS011;68119;43.398;3.676;2024-03-29T11:43:52;59.03;;;24.23;;
78774;SDS011;68119;43.398;3.676;2024-03-29T11:46:27;61.45;;;19.30;;
78774;SDS011;68119;43.398;3.676;2024-03-29T11:49:03;69.30;;;24.90;;
78774;SDS011;68119;43.398;3.676;2024-03-29T11:51:34;66.70;;;19.73;;
78774;SDS011;68119;43.398;3.676;2024-03-29T11:54:04;64.00;;;33.65;;
78774;SDS011;68119;43.398;3.676;2024-03-29T11:56:33;72.38;;;20.60;;
78774;SDS011;68119;43.398;3.676;2024-03-29T11:59:06;77.60;;;31.40;;
78774;SDS011;68119;43.398;3.676;2024-03-29T12:01:35;65.75;;;34.70;;
78774;SDS011;68119;43.398;3.676;2024-03-29T12:04:04;74.43;;;33.95;;
78774;SDS011;68119;43.398;3.676;2024-03-29T12:06:33;81.68;;;41.22;;
78774;SDS011;68119;43.398;3.676;2024-03-29T12:11:51;79.40;;;34.40;;
78774;SDS011;68119;43.398;3.676;2024-03-29T12:14:33;80.38;;;27.95;;
78774;SDS011;68119;43.398;3.676;2024-03-29T12:17:10;77.15;;;34.72;;
78774;SDS011;68119;43.398;3.676;2024-03-29T12:23:00;66.05;;;22.23;;
78774;SDS011;68119;43.398;3.676;2024-03-29T12:25:28;75.75;;;40.10;;
78774;SDS011;68119;43.398;3.676;2024-03-29T12:27:55;77.43;;;26.35;;
78774;SDS011;68119;43.398;3.676;2024-03-29T12:30:27;82.10;;;21.90;;
78774;SDS011;68119;43.398;3.676;2024-03-29T12:33:12;75.18;;;24.77;;
78774;SDS011;68119;43.398;3.676;2024-03-29T12:35:48;73.80;;;26.60;;
78774;SDS011;68119;43.398;3.676;2024-03-29T12:38:28;77.75;;;25.30;;
78774;SDS011;68119;43.398;3.676;2024-03-29T12:40:58;76.97;;;26.58;;
78774;SDS011;68119;43.398;3.676;2024-03-29T12:43:27;66.25;;;25.95;;
78774;SDS011;68119;43.398;3.676;2024-03-29T12:49:10;85.97;;;25.30;;
78774;SDS011;68119;43.398;3.676;2024-03-29T12:51:39;72.30;;;31.77;;
78774;SDS011;68119;43.398;3.676;2024-03-29T12:54:21;80.78;;;21.02;;
78774;SDS011;68119;43.398;3.676;2024-03-29T12:56:49;91.43;;;25.58;;
78774;SDS011;68119;43.398;3.676;2024-03-29T12:59:22;82.95;;;24.13;;
78774;SDS011;68119;43.398;3.676;2024-03-29T13:01:52;96.75;;;30.35;;
78774;SDS011;68119;43.398;3.676;2024-03-29T13:04:19;88.35;;;26.65;;
78774;SDS011;68119;43.398;3.676;2024-03-29T13:09:58;85.97;;;24.00;;
78774;SDS011;68119;43.398;3.676;2024-03-29T13:12:28;88.97;;;26.92;;
78774;SDS011;68119;43.398;3.676;2024-03-29T13:14:55;101.13;;;25.38;;
78774;SDS011;68119;43.398;3.676;2024-03-29T13:17:27;108.25;;;31.67;;
78774;SDS011;68119;43.398;3.676;2024-03-29T13:19:56;91.35;;;24.10;;
78774;SDS011;68119;43.398;3.676;2024-03-29T13:22:24;97.18;;;20.20;;
78774;SDS011;68119;43.398;3.676;2024-03-29T13:25:02;118.18;;;35.45;;
78774;SDS011;68119;43.398;3.676;2024-03-29T13:27:30;105.32;;;30.52;;
78774;SDS011;68119;43.398;3.676;2024-03-29T13:29:59;103.80;;;27.95;;
78774;SDS011;68119;43.398;3.676;2024-03-29T13:35:31;120.45;;;38.78;;
78774;SDS011;68119;43.398;3.676;2024-03-29T13:40:26;101.45;;;42.05;;
78774;SDS011;68119;43.398;3.676;2024-03-29T13:42:52;99.70;;;34.85;;
78774;SDS011;68119;43.398;3.676;2024-03-29T13:45:21;89.20;;;25.85;;
78774;SDS011;68119;43.398;3.676;2024-03-29T13:47:55;99.93;;;34.28;;
78774;SDS011;68119;43.398;3.676;2024-03-29T13:53:06;103.38;;;33.67;;
78774;SDS011;68119;43.398;3.676;2024-03-29T13:55:54;96.45;;;27.48;;
78774;SDS011;68119;43.398;3.676;2024-03-29T13:58:21;100.50;;;25.75;;
78774;SDS011;68119;43.398;3.676;2024-03-29T14:03:39;85.25;;;26.08;;
78774;SDS011;68119;43.398;3.676;2024-03-29T14:06:06;112.45;;;26.08;;
78774;SDS011;68119;43.398;3.676;2024-03-29T14:08:37;93.68;;;27.85;;
78774;SDS011;68119;43.398;3.676;2024-03-29T14:11:22;103.25;;;30.52;;
78774;SDS011;68119;43.398;3.676;2024-03-29T14:13:50;89.32;;;34.25;;
78774;SDS011;68119;43.398;3.676;2024-03-29T14:16:22;108.10;;;68.30;;
78774;SDS011;68119;43.398;3.676;2024-03-29T14:19:03;135.55;;;73.63;;
78774;SDS011;68119;43.398;3.676;2024-03-29T14:21:32;164.07;;;117.13;;
78774;SDS011;68119;43.398;3.676;2024-03-29T14:24:00;115.75;;;53.42;;
78774;SDS011;68119;43.398;3.676;2024-03-29T14:28:59;94.38;;;32.95;;
78774;SDS011;68119;43.398;3.676;2024-03-29T14:31:25;122.10;;;74.25;;
78774;SDS011;68119;43.398;3.676;2024-03-29T14:33:51;119.70;;;65.38;;
78774;SDS011;68119;43.398;3.676;2024-03-29T14:36:17;117.97;;;57.90;;
78774;SDS011;68119;43.398;3.676;2024-03-29T14:38:56;100.65;;;43.60;;
78774;SDS011;68119;43.398;3.676;2024-03-29T14:41:26;96.07;;;40.67;;
78774;SDS011;68119;43.398;3.676;2024-03-29T14:44:05;81.38;;;26.52;;
78774;SDS011;68119;43.398;3.676;2024-03-29T14:46:34;63.00;;;14.27;;
78774;SDS011;68119;43.398;3.676;2024-03-29T14:49:04;69.50;;;15.90;;
78774;SDS011;68119;43.398;3.676;2024-03-29T14:51:32;69.78;;;17.50;;
78774;SDS011;68119;43.398;3.676;2024-03-29T14:53:59;72.72;;;18.33;;
78774;SDS011;68119;43.398;3.676;2024-03-29T14:59:24;64.15;;;17.25;;
78774;SDS011;68119;43.398;3.676;2024-03-29T15:01:56;70.45;;;15.27;;
78774;SDS011;68119;43.398;3.676;2024-03-29T15:04:25;63.33;;;14.82;;
78774;SDS011;68119;43.398;3.676;2024-03-29T15:06:51;58.85;;;14.10;;
78774;SDS011;68119;43.398;3.676;2024-03-29T15:11:56;59.13;;;14.65;;
78774;SDS011;68119;43.398;3.676;2024-03-29T15:14:24;69.22;;;15.40;;
78774;SDS011;68119;43.398;3.676;2024-03-29T15:17:06;65.75;;;13.90;;
78774;SDS011;68119;43.398;3.676;2024-03-29T15:19:35;58.90;;;14.43;;
78774;SDS011;68119;43.398;3.676;2024-03-29T15:22:06;67.35;;;16.48;;
78774;SDS011;68119;43.398;3.676;2024-03-29T15:33:27;86.05;;;20.27;;
78774;SDS011;68119;43.398;3.676;2024-03-29T15:35:56;81.57;;;19.52;;
78774;SDS011;68119;43.398;3.676;2024-03-29T15:38:24;92.45;;;17.98;;
78774;SDS011;68119;43.398;3.676;2024-03-29T15:40:56;91.57;;;21.33;;
78774;SDS011;68119;43.398;3.676;2024-03-29T15:43:23;80.00;;;19.38;;
78774;SDS011;68119;43.398;3.676;2024-03-29T15:45:51;89.55;;;19.80;;
78774;SDS011;68119;43.398;3.676;2024-03-29T15:48:20;76.15;;;17.70;;
78774;SDS011;68119;43.398;3.676;2024-03-29T15:50:51;87.97;;;20.92;;
78774;SDS011;68119;43.398;3.676;2024-03-29T15:53:17;100.07;;;20.25;;
78774;SDS011;68119;43.398;3.676;2024-03-29T15:55:44;95.72;;;20.95;;
78774;SDS011;68119;43.398;3.676;2024-03-29T15:58:11;96.72;;;18.83;;
78774;SDS011;68119;43.398;3.676;2024-03-29T16:00:37;94.03;;;19.33;;